sensor_id;sensor_type;location;lat;lon;timestamp;pressure;altitude;pressure_sealevel;temperature;humidity
5988;BME280;3021;51.000;6.980;2022-08-19T00:00:11;68478.09;;;19.50;100.00
5988;BME280;3021;51.000;6.980;2022-08-19T00:02:39;68474.63;;;19.47;100.00
5988;BME280;3021;51.000;6.980;2022-08-19T00:05:04;68474.47;;;19.44;100.00
5988;BME280;3021;51.000;6.980;2022-08-19T00:07:29;68471.56;;;19.42;100.00
5988;BME280;3021;51.000;6.980;2022-08-19T00:09:55;68465.91;;;19.39;100.00
5988;BME280;3021;51.000;6.980;2022-08-19T00:12:21;68467.50;;;19.38;100.00
5988;BME280;3021;51.000;6.980;2022-08-19T00:14:46;68461.81;;;19.36;100.00
5988;BME280;3021;51.000;6.980;2022-08-19T00:17:11;68459.50;;;19.33;100.00
5988;BME280;3021;51.000;6.980;2022-08-19T00:19:37;68454.25;;;19.29;100.00
5988;BME280;3021;51.000;6.980;2022-08-19T00:22:03;68450.19;;;19.25;100.00
5988;BME280;3021;51.000;6.980;2022-08-19T00:24:28;68450.63;;;19.23;100.00
5988;BME280;3021;51.000;6.980;2022-08-19T00:26:54;68439.81;;;19.19;100.00
5988;BME280;3021;51.000;6.980;2022-08-19T00:29:20;68438.53;;;19.15;100.00
5988;BME280;3021;51.000;6.980;2022-08-19T00:31:46;68435.03;;;19.12;100.00
5988;BME280;3021;51.000;6.980;2022-08-19T00:34:12;68432.72;;;19.10;100.00
5988;BME280;3021;51.000;6.980;2022-08-19T00:36:38;68432.00;;;19.07;100.00
5988;BME280;3021;51.000;6.980;2022-08-19T00:39:04;68427.50;;;19.05;100.00
5988;BME280;3021;51.000;6.980;2022-08-19T00:41:29;68426.91;;;19.05;100.00
5988;BME280;3021;51.000;6.980;2022-08-19T00:46:23;68425.63;;;19.01;100.00
5988;BME280;3021;51.000;6.980;2022-08-19T00:48:48;68421.66;;;19.00;100.00
5988;BME280;3021;51.000;6.980;2022-08-19T00:51:14;68420.94;;;18.97;100.00
5988;BME280;3021;51.000;6.980;2022-08-19T00:53:39;68411.91;;;18.94;100.00
5988;BME280;3021;51.000;6.980;2022-08-19T00:56:05;68410.03;;;18.90;100.00
5988;BME280;3021;51.000;6.980;2022-08-19T00:58:32;68405.94;;;18.86;100.00
5988;BME280;3021;51.000;6.980;2022-08-19T01:00:58;68403.03;;;18.83;100.00
5988;BME280;3021;51.000;6.980;2022-08-19T01:03:23;68402.31;;;18.80;100.00
5988;BME280;3021;51.000;6.980;2022-08-19T01:05:49;68392.13;;;18.76;100.00
5988;BME280;3021;51.000;6.980;2022-08-19T01:08:15;68388.03;;;18.73;100.00
5988;BME280;3021;51.000;6.980;2022-08-19T01:10:44;68387.91;;;18.70;100.00
5988;BME280;3021;51.000;6.980;2022-08-19T01:13:13;68384.41;;;18.67;100.00
5988;BME280;3021;51.000;6.980;2022-08-19T01:15:43;68384.88;;;18.65;100.00
5988;BME280;3021;51.000;6.980;2022-08-19T01:18:11;68379.75;;;18.63;100.00
5988;BME280;3021;51.000;6.980;2022-08-19T01:20:37;68376.84;;;18.60;100.00
5988;BME280;3021;51.000;6.980;2022-08-19T01:23:03;68370.59;;;18.57;100.00
5988;BME280;3021;51.000;6.980;2022-08-19T01:25:30;68370.44;;;18.55;100.00
5988;BME280;3021;51.000;6.980;2022-08-19T01:27:56;68366.97;;;18.52;100.00
5988;BME280;3021;51.000;6.980;2022-08-19T01:30:24;68364.66;;;18.50;100.00
5988;BME280;3021;51.000;6.980;2022-08-19T01:32:50;68367.28;;;18.47;100.00
5988;BME280;3021;51.000;6.980;2022-08-19T01:35:15;68365.22;;;18.50;100.00
5988;BME280;3021;51.000;6.980;2022-08-19T01:37:52;68364.06;;;18.49;100.00
5988;BME280;3021;51.000;6.980;2022-08-19T01:40:18;68354.91;;;18.43;100.00
5988;BME280;3021;51.000;6.980;2022-08-19T01:42:45;68356.50;;;18.42;100.00
5988;BME280;3021;51.000;6.980;2022-08-19T01:45:10;68361.03;;;18.44;100.00
5988;BME280;3021;51.000;6.980;2022-08-19T01:47:36;68352.44;;;18.39;100.00
5988;BME280;3021;51.000;6.980;2022-08-19T01:50:01;68354.06;;;18.38;100.00
5988;BME280;3021;51.000;6.980;2022-08-19T01:52:26;68351.13;;;18.35;100.00
5988;BME280;3021;51.000;6.980;2022-08-19T01:54:52;68347.91;;;18.37;100.00
5988;BME280;3021;51.000;6.980;2022-08-19T01:57:17;68351.84;;;18.38;100.00
5988;BME280;3021;51.000;6.980;2022-08-19T01:59:43;68352.31;;;18.36;100.00
5988;BME280;3021;51.000;6.980;2022-08-19T02:02:09;68348.69;;;18.30;100.00
5988;BME280;3021;51.000;6.980;2022-08-19T02:04:35;68342.41;;;18.27;100.00
5988;BME280;3021;51.000;6.980;2022-08-19T02:07:03;68335.56;;;18.24;100.00
5988;BME280;3021;51.000;6.980;2022-08-19T02:09:28;68336.00;;;18.22;100.00
5988;BME280;3021;51.000;6.980;2022-08-19T02:11:53;68330.34;;;18.19;100.00
5988;BME280;3021;51.000;6.980;2022-08-19T02:14:18;68323.34;;;18.13;100.00
5988;BME280;3021;51.000;6.980;2022-08-19T02:16:44;68322.22;;;18.12;100.00
5988;BME280;3021;51.000;6.980;2022-08-19T02:19:09;68322.66;;;18.10;100.00
5988;BME280;3021;51.000;6.980;2022-08-19T02:21:35;68317.09;;;18.10;100.00
5988;BME280;3021;51.000;6.980;2022-08-19T02:24:00;68319.88;;;18.10;100.00
5988;BME280;3021;51.000;6.980;2022-08-19T02:26:26;68315.81;;;18.06;100.00
5988;BME280;3021;51.000;6.980;2022-08-19T02:28:52;68318.00;;;18.06;100.00
5988;BME280;3021;51.000;6.980;2022-08-19T02:31:18;68312.31;;;18.03;100.00
5988;BME280;3021;51.000;6.980;2022-08-19T02:33:44;68311.59;;;18.00;100.00
5988;BME280;3021;51.000;6.980;2022-08-19T02:36:11;68303.03;;;17.95;100.00
5988;BME280;3021;51.000;6.980;2022-08-19T02:38:36;68303.47;;;17.93;100.00
5988;BME280;3021;51.000;6.980;2022-08-19T02:41:11;68306.94;;;17.96;100.00
5988;BME280;3021;51.000;6.980;2022-08-19T02:43:37;68302.44;;;17.94;100.00
5988;BME280;3021;51.000;6.980;2022-08-19T02:46:14;68305.19;;;17.94;100.00
5988;BME280;3021;51.000;6.980;2022-08-19T02:48:39;68305.78;;;17.95;100.00
5988;BME280;3021;51.000;6.980;2022-08-19T02:51:04;68304.75;;;17.96;100.00
5988;BME280;3021;51.000;6.980;2022-08-19T02:53:30;68297.78;;;17.90;100.00
5988;BME280;3021;51.000;6.980;2022-08-19T02:55:55;68292.53;;;17.86;100.00
5988;BME280;3021;51.000;6.980;2022-08-19T02:58:21;68294.88;;;17.88;100.00
5988;BME280;3021;51.000;6.980;2022-08-19T03:00:47;68292.53;;;17.86;100.00
5988;BME280;3021;51.000;6.980;2022-08-19T03:03:14;68293.69;;;17.87;100.00
5988;BME280;3021;51.000;6.980;2022-08-19T03:05:39;68292.53;;;17.86;100.00
5988;BME280;3021;51.000;6.980;2022-08-19T03:08:05;68296.47;;;17.87;100.00
5988;BME280;3021;51.000;6.980;2022-08-19T03:10:31;68290.78;;;17.84;100.00
5988;BME280;3021;51.000;6.980;2022-08-19T03:12:56;68287.88;;;17.82;100.00
5988;BME280;3021;51.000;6.980;2022-08-19T03:15:21;68283.81;;;17.78;100.00
5988;BME280;3021;51.000;6.980;2022-08-19T03:17:47;68284.38;;;17.78;100.00
5988;BME280;3021;51.000;6.980;2022-08-19T03:20:12;68287.16;;;17.78;100.00
5988;BME280;3021;51.000;6.980;2022-08-19T03:22:37;68282.66;;;17.77;100.00
5988;BME280;3021;51.000;6.980;2022-08-19T03:25:03;68279.88;;;17.77;100.00
5988;BME280;3021;51.000;6.980;2022-08-19T03:27:28;68282.06;;;17.76;100.00
5988;BME280;3021;51.000;6.980;2022-08-19T03:29:54;68280.91;;;17.75;100.00
5988;BME280;3021;51.000;6.980;2022-08-19T03:32:19;68279.72;;;17.74;100.00
5988;BME280;3021;51.000;6.980;2022-08-19T03:34:46;68278.00;;;17.73;100.00
5988;BME280;3021;51.000;6.980;2022-08-19T03:37:12;68277.41;;;17.72;100.00
5988;BME280;3021;51.000;6.980;2022-08-19T03:39:37;68274.97;;;17.68;100.00
5988;BME280;3021;51.000;6.980;2022-08-19T03:42:03;68275.69;;;17.71;100.00
5988;BME280;3021;51.000;6.980;2022-08-19T03:44:29;68272.19;;;17.68;100.00
5988;BME280;3021;51.000;6.980;2022-08-19T03:46:55;68273.81;;;17.67;100.00
5988;BME280;3021;51.000;6.980;2022-08-19T03:49:22;68273.81;;;17.67;100.00
5988;BME280;3021;51.000;6.980;2022-08-19T03:51:48;68271.47;;;17.65;100.00
5988;BME280;3021;51.000;6.980;2022-08-19T03:54:15;68266.38;;;17.62;100.00
5988;BME280;3021;51.000;6.980;2022-08-19T03:56:41;68269.16;;;17.62;100.00
5988;BME280;3021;51.000;6.980;2022-08-19T03:59:09;68261.88;;;17.61;100.00
5988;BME280;3021;51.000;6.980;2022-08-19T04:01:35;68267.97;;;17.61;100.00
5988;BME280;3021;51.000;6.980;2022-08-19T04:04:00;68267.41;;;17.61;100.00
5988;BME280;3021;51.000;6.980;2022-08-19T04:06:28;68266.25;;;17.60;100.00
5988;BME280;3021;51.000;6.980;2022-08-19T04:08:54;68267.41;;;17.61;100.00
5988;BME280;3021;51.000;6.980;2022-08-19T04:11:21;68268.56;;;17.62;100.00
5988;BME280;3021;51.000;6.980;2022-08-19T04:13:46;68266.38;;;17.62;100.00
5988;BME280;3021;51.000;6.980;2022-08-19T04:16:12;68269.28;;;17.65;100.00
5988;BME280;3021;51.000;6.980;2022-08-19T04:18:38;68269.84;;;17.66;100.00
5988;BME280;3021;51.000;6.980;2022-08-19T04:21:03;68272.06;;;17.65;100.00
5988;BME280;3021;51.000;6.980;2022-08-19T04:23:29;68275.53;;;17.68;100.00
5988;BME280;3021;51.000;6.980;2022-08-19T04:25:55;68274.97;;;17.68;100.00
5988;BME280;3021;51.000;6.980;2022-08-19T04:28:20;68272.31;;;17.70;100.00
5988;BME280;3021;51.000;6.980;2022-08-19T04:30:47;68279.03;;;17.71;100.00
5988;BME280;3021;51.000;6.980;2022-08-19T04:33:12;68276.25;;;17.71;100.00
5988;BME280;3021;51.000;6.980;2022-08-19T04:35:39;68276.25;;;17.71;100.00
5988;BME280;3021;51.000;6.980;2022-08-19T04:38:05;68276.72;;;17.69;100.00
5988;BME280;3021;51.000;6.980;2022-08-19T04:40:31;68274.38;;;17.67;100.00
5988;BME280;3021;51.000;6.980;2022-08-19T04:43:15;68268.81;;;17.67;100.00
5988;BME280;3021;51.000;6.980;2022-08-19T04:45:41;68277.28;;;17.70;100.00
5988;BME280;3021;51.000;6.980;2022-08-19T04:48:08;68275.09;;;17.70;100.00
5988;BME280;3021;51.000;6.980;2022-08-19T04:50:33;68273.47;;;17.71;100.00
5988;BME280;3021;51.000;6.980;2022-08-19T04:52:58;68279.59;;;17.72;100.00
5988;BME280;3021;51.000;6.980;2022-08-19T04:55:24;68283.09;;;17.75;100.00
5988;BME280;3021;51.000;6.980;2022-08-19T04:57:50;68287.63;;;17.76;100.00
5988;BME280;3021;51.000;6.980;2022-08-19T05:00:16;68291.81;;;17.83;100.00
5988;BME280;3021;51.000;6.980;2022-08-19T05:02:41;68297.63;;;17.88;100.00
5988;BME280;3021;51.000;6.980;2022-08-19T05:05:06;68303.03;;;17.95;100.00
5988;BME280;3021;51.000;6.980;2022-08-19T05:07:32;68307.06;;;17.99;100.00
5988;BME280;3021;51.000;6.980;2022-08-19T05:09:57;68315.22;;;18.06;100.00
5988;BME280;3021;51.000;6.980;2022-08-19T05:12:22;68325.09;;;18.14;100.00
5988;BME280;3021;51.000;6.980;2022-08-19T05:14:48;68336.16;;;18.24;100.00
5988;BME280;3021;51.000;6.980;2022-08-19T05:17:14;68345.91;;;18.30;100.00
5988;BME280;3021;51.000;6.980;2022-08-19T05:19:39;68346.75;;;18.36;100.00
5988;BME280;3021;51.000;6.980;2022-08-19T05:22:23;68360.00;;;18.45;100.00
5988;BME280;3021;51.000;6.980;2022-08-19T05:25:07;68372.66;;;18.54;100.00
5988;BME280;3021;51.000;6.980;2022-08-19T05:27:33;68381.97;;;18.62;100.00
5988;BME280;3021;51.000;6.980;2022-08-19T05:29:59;68388.50;;;18.71;100.00
5988;BME280;3021;51.000;6.980;2022-08-19T05:32:24;68395.47;;;18.77;100.00
5988;BME280;3021;51.000;6.980;2022-08-19T05:34:50;68405.94;;;18.86;100.00
5988;BME280;3021;51.000;6.980;2022-08-19T05:37:15;68414.69;;;18.94;100.00
5988;BME280;3021;51.000;6.980;2022-08-19T05:39:41;68422.25;;;19.01;100.00
5988;BME280;3021;51.000;6.980;2022-08-19T05:42:07;68427.50;;;19.05;100.00
5988;BME280;3021;51.000;6.980;2022-08-19T05:44:34;68433.28;;;19.10;100.00
5988;BME280;3021;51.000;6.980;2022-08-19T05:47:00;68444.34;;;19.20;100.00
5988;BME280;3021;51.000;6.980;2022-08-19T05:49:26;68452.50;;;19.27;100.00
5988;BME280;3021;51.000;6.980;2022-08-19T05:51:52;68462.38;;;19.36;100.00
5988;BME280;3021;51.000;6.980;2022-08-19T05:54:18;68474.47;;;19.44;100.00
5988;BME280;3021;51.000;6.980;2022-08-19T05:56:44;68478.81;;;19.53;100.00
5988;BME280;3021;51.000;6.980;2022-08-19T05:59:12;68485.69;;;19.57;100.00
5988;BME280;3021;51.000;6.980;2022-08-19T06:01:38;68491.47;;;19.62;100.00
5988;BME280;3021;51.000;6.980;2022-08-19T06:04:04;68499.06;;;19.68;100.00
5988;BME280;3021;51.000;6.980;2022-08-19T06:06:29;68510.13;;;19.78;100.00
5988;BME280;3021;51.000;6.980;2022-08-19T06:08:54;68521.22;;;19.88;100.00
5988;BME280;3021;51.000;6.980;2022-08-19T06:11:24;68542.03;;;20.04;100.00
5988;BME280;3021;51.000;6.980;2022-08-19T06:13:51;68570.09;;;20.31;100.00
5988;BME280;3021;51.000;6.980;2022-08-19T06:16:20;68603.31;;;20.61;100.00
5988;BME280;3021;51.000;6.980;2022-08-19T06:18:52;68645.28;;;20.98;100.00
5988;BME280;3021;51.000;6.980;2022-08-19T06:21:21;68699.34;;;21.43;100.00
5988;BME280;3021;51.000;6.980;2022-08-19T06:23:47;68754.84;;;21.95;100.00
5988;BME280;3021;51.000;6.980;2022-08-19T06:26:13;68792.91;;;22.31;100.00
5988;BME280;3021;51.000;6.980;2022-08-19T06:28:39;68828.03;;;22.64;100.00
5988;BME280;3021;51.000;6.980;2022-08-19T06:31:11;68843.09;;;22.75;100.00
5988;BME280;3021;51.000;6.980;2022-08-19T06:33:38;68834.31;;;22.67;100.00
5988;BME280;3021;51.000;6.980;2022-08-19T06:36:04;68833.75;;;22.67;100.00
5988;BME280;3021;51.000;6.980;2022-08-19T06:38:29;68858.69;;;22.86;100.00
5988;BME280;3021;51.000;6.980;2022-08-19T06:41:03;68888.63;;;23.15;100.00
5988;BME280;3021;51.000;6.980;2022-08-19T06:43:28;68901.44;;;23.26;100.00
5988;BME280;3021;51.000;6.980;2022-08-19T06:45:53;68909.50;;;23.31;100.00
5988;BME280;3021;51.000;6.980;2022-08-19T06:48:19;68938.81;;;23.59;100.00
5988;BME280;3021;51.000;6.980;2022-08-19T06:50:44;68931.78;;;23.53;100.00
5988;BME280;3021;51.000;6.980;2022-08-19T06:53:09;68921.28;;;23.44;100.00
5988;BME280;3021;51.000;6.980;2022-08-19T06:55:34;68930.50;;;23.50;100.00
5988;BME280;3021;51.000;6.980;2022-08-19T06:58:03;68963.06;;;23.76;100.00
5988;BME280;3021;51.000;6.980;2022-08-19T07:00:29;68979.00;;;23.92;100.00
5988;BME280;3021;51.000;6.980;2022-08-19T07:02:54;69007.84;;;24.23;100.00
5988;BME280;3021;51.000;6.980;2022-08-19T07:05:19;69012.38;;;24.24;100.00
5988;BME280;3021;51.000;6.980;2022-08-19T07:07:44;69018.81;;;24.30;100.00
5988;BME280;3021;51.000;6.980;2022-08-19T07:10:09;69041.47;;;24.47;100.00
5988;BME280;3021;51.000;6.980;2022-08-19T07:12:35;69010.75;;;24.25;100.00
5988;BME280;3021;51.000;6.980;2022-08-19T07:15:00;68986.69;;;24.02;100.00
5988;BME280;3021;51.000;6.980;2022-08-19T07:17:25;68963.78;;;23.79;100.00
5988;BME280;3021;51.000;6.980;2022-08-19T07:19:51;68948.03;;;23.65;100.00
5988;BME280;3021;51.000;6.980;2022-08-19T07:22:16;68911.94;;;23.36;100.00
5988;BME280;3021;51.000;6.980;2022-08-19T07:24:43;68893.88;;;23.20;100.00
5988;BME280;3021;51.000;6.980;2022-08-19T07:27:08;68889.06;;;23.13;100.00
5988;BME280;3021;51.000;6.980;2022-08-19T07:29:35;68889.06;;;23.13;100.00
5988;BME280;3021;51.000;6.980;2022-08-19T07:32:01;68883.66;;;23.06;100.00
5988;BME280;3021;51.000;6.980;2022-08-19T07:34:27;68856.50;;;22.87;100.00
5988;BME280;3021;51.000;6.980;2022-08-19T07:36:53;68847.63;;;22.76;100.00
5988;BME280;3021;51.000;6.980;2022-08-19T07:39:21;68834.19;;;22.65;100.00
5988;BME280;3021;51.000;6.980;2022-08-19T07:41:47;68816.81;;;22.52;100.00
5988;BME280;3021;51.000;6.980;2022-08-19T07:44:12;68832.00;;;22.65;100.00
5988;BME280;3021;51.000;6.980;2022-08-19T07:46:39;68844.84;;;22.76;100.00
5988;BME280;3021;51.000;6.980;2022-08-19T07:49:05;68846.59;;;22.78;100.00
5988;BME280;3021;51.000;6.980;2022-08-19T07:51:30;68847.72;;;22.79;100.00
5988;BME280;3021;51.000;6.980;2022-08-19T07:53:56;68864.09;;;22.93;100.00
5988;BME280;3021;51.000;6.980;2022-08-19T07:58:50;68882.75;;;23.10;100.00
5988;BME280;3021;51.000;6.980;2022-08-19T08:01:17;68883.78;;;23.08;100.00
5988;BME280;3021;51.000;6.980;2022-08-19T08:03:42;68876.91;;;23.05;100.00
5988;BME280;3021;51.000;6.980;2022-08-19T08:06:26;68890.81;;;23.15;100.00
5988;BME280;3021;51.000;6.980;2022-08-19T08:09:11;68902.59;;;23.27;100.00
5988;BME280;3021;51.000;6.980;2022-08-19T08:11:54;68914.16;;;23.35;100.00
5988;BME280;3021;51.000;6.980;2022-08-19T08:16:53;68923.63;;;23.46;100.00
5988;BME280;3021;51.000;6.980;2022-08-19T08:19:20;68925.84;;;23.45;100.00
5988;BME280;3021;51.000;6.980;2022-08-19T08:21:45;68913.13;;;23.37;100.00
5988;BME280;3021;51.000;6.980;2022-08-19T08:24:11;68898.53;;;23.24;100.00
5988;BME280;3021;51.000;6.980;2022-08-19T08:26:37;68876.22;;;23.02;100.00
5988;BME280;3021;51.000;6.980;2022-08-19T08:29:02;68864.53;;;22.91;100.00
5988;BME280;3021;51.000;6.980;2022-08-19T08:31:28;68846.59;;;22.78;100.00
5988;BME280;3021;51.000;6.980;2022-08-19T08:33:53;68831.88;;;22.63;100.00
5988;BME280;3021;51.000;6.980;2022-08-19T08:36:18;68832.44;;;22.63;100.00
5988;BME280;3021;51.000;6.980;2022-08-19T08:38:44;68841.66;;;22.69;100.00
5988;BME280;3021;51.000;6.980;2022-08-19T08:43:45;68887.31;;;23.11;100.00
5988;BME280;3021;51.000;6.980;2022-08-19T08:46:22;68933.88;;;23.50;100.00
5988;BME280;3021;51.000;6.980;2022-08-19T08:48:57;68971.53;;;23.88;100.00
5988;BME280;3021;51.000;6.980;2022-08-19T08:51:26;69032.25;;;24.42;100.00
5988;BME280;3021;51.000;6.980;2022-08-19T08:53:53;69096.97;;;24.96;100.00
5988;BME280;3021;51.000;6.980;2022-08-19T08:56:19;69132.63;;;25.28;100.00
5988;BME280;3021;51.000;6.980;2022-08-19T08:58:47;69184.69;;;25.74;100.00
5988;BME280;3021;51.000;6.980;2022-08-19T09:01:16;69222.84;;;26.10;100.00
5988;BME280;3021;51.000;6.980;2022-08-19T09:03:42;69264.81;;;26.44;100.00
5988;BME280;3021;51.000;6.980;2022-08-19T09:09:11;69317.72;;;26.96;100.00
5988;BME280;3021;51.000;6.980;2022-08-19T09:16:39;69281.91;;;26.62;100.00
5988;BME280;3021;51.000;6.980;2022-08-19T09:19:06;69281.19;;;26.59;100.00
5988;BME280;3021;51.000;6.980;2022-08-19T09:21:32;69279.69;;;26.62;100.00
5988;BME280;3021;51.000;6.980;2022-08-19T09:23:57;69289.53;;;26.68;100.00
5988;BME280;3021;51.000;6.980;2022-08-19T09:26:24;69261.53;;;26.46;100.00
5988;BME280;3021;51.000;6.980;2022-08-19T10:15:14;69788.81;;;31.07;100.00
5988;BME280;3021;51.000;6.980;2022-08-19T10:17:39;69798.28;;;31.18;100.00
5988;BME280;3021;51.000;6.980;2022-08-19T10:20:05;69822.25;;;31.36;100.00
5988;BME280;3021;51.000;6.980;2022-08-19T10:22:30;69839.19;;;31.49;100.00
5988;BME280;3021;51.000;6.980;2022-08-19T10:24:55;69860.44;;;31.70;100.00
5988;BME280;3021;51.000;6.980;2022-08-19T10:27:21;69861.00;;;31.70;100.00
5988;BME280;3021;51.000;6.980;2022-08-19T10:29:46;69885.09;;;31.92;100.00
5988;BME280;3021;51.000;6.980;2022-08-19T10:32:12;69893.19;;;31.96;100.00
5988;BME280;3021;51.000;6.980;2022-08-19T10:34:38;69929.13;;;32.30;100.00
5988;BME280;3021;51.000;6.980;2022-08-19T10:37:04;69945.56;;;32.45;100.00
5988;BME280;3021;51.000;6.980;2022-08-19T10:39:31;69985.03;;;32.82;100.00
5988;BME280;3021;51.000;6.980;2022-08-19T10:41:56;70004.22;;;32.94;100.00
5988;BME280;3021;51.000;6.980;2022-08-19T10:44:22;69961.44;;;32.59;100.00
5988;BME280;3021;51.000;6.980;2022-08-19T10:46:48;69866.28;;;31.75;100.00
5988;BME280;3021;51.000;6.980;2022-08-19T10:49:14;69784.03;;;31.00;100.00
5988;BME280;3021;51.000;6.980;2022-08-19T10:51:41;69723.09;;;30.49;100.00
5988;BME280;3021;51.000;6.980;2022-08-19T10:54:25;69747.75;;;30.71;100.00
5988;BME280;3021;51.000;6.980;2022-08-19T10:57:09;69787.66;;;31.06;100.00
5988;BME280;3021;51.000;6.980;2022-08-19T10:59:35;69812.88;;;31.28;100.00
5988;BME280;3021;51.000;6.980;2022-08-19T11:02:01;69835.75;;;31.48;100.00
5988;BME280;3021;51.000;6.980;2022-08-19T11:04:26;69836.94;;;31.49;100.00
5988;BME280;3021;51.000;6.980;2022-08-19T11:06:52;69787.06;;;31.06;100.00
5988;BME280;3021;51.000;6.980;2022-08-19T11:09:19;69766.50;;;30.88;100.00
5988;BME280;3021;51.000;6.980;2022-08-19T11:11:44;69737.78;;;30.62;100.00
5988;BME280;3021;51.000;6.980;2022-08-19T11:14:11;69688.47;;;30.19;100.00
5988;BME280;3021;51.000;6.980;2022-08-19T11:16:37;69674.41;;;30.07;100.00
5988;BME280;3021;51.000;6.980;2022-08-19T11:19:07;69641.53;;;29.78;100.00
5988;BME280;3021;51.000;6.980;2022-08-19T11:21:37;69590.66;;;29.36;100.00
5988;BME280;3021;51.000;6.980;2022-08-19T11:24:05;69560.06;;;29.06;100.00
5988;BME280;3021;51.000;6.980;2022-08-19T11:26:31;69540.72;;;28.89;100.00
5988;BME280;3021;51.000;6.980;2022-08-19T11:28:57;69554.22;;;29.01;100.00
5988;BME280;3021;51.000;6.980;2022-08-19T11:31:24;69587.53;;;29.28;100.00
5988;BME280;3021;51.000;6.980;2022-08-19T11:33:50;69601.13;;;29.42;100.00
5988;BME280;3021;51.000;6.980;2022-08-19T11:36:18;69596.53;;;29.41;100.00
5988;BME280;3021;51.000;6.980;2022-08-19T11:38:45;69589.97;;;29.33;100.00
5988;BME280;3021;51.000;6.980;2022-08-19T11:41:13;69540.63;;;28.87;100.00
5988;BME280;3021;51.000;6.980;2022-08-19T11:43:39;69499.59;;;28.51;100.00
5988;BME280;3021;51.000;6.980;2022-08-19T11:46:08;69467.50;;;28.25;100.00
5988;BME280;3021;51.000;6.980;2022-08-19T11:48:34;69442.31;;;28.03;100.00
5988;BME280;3021;51.000;6.980;2022-08-19T11:51:03;69477.34;;;28.31;100.00
5988;BME280;3021;51.000;6.980;2022-08-19T11:53:31;69513.69;;;28.63;100.00
5988;BME280;3021;51.000;6.980;2022-08-19T11:55:56;69527.75;;;28.75;100.00
5988;BME280;3021;51.000;6.980;2022-08-19T11:58:22;69529.63;;;28.79;100.00
5988;BME280;3021;51.000;6.980;2022-08-19T12:00:47;69520.81;;;28.72;100.00
5988;BME280;3021;51.000;6.980;2022-08-19T12:03:13;69512.63;;;28.65;100.00
5988;BME280;3021;51.000;6.980;2022-08-19T12:05:39;69516.00;;;28.65;100.00
5988;BME280;3021;51.000;6.980;2022-08-19T12:08:05;69493.75;;;28.45;100.00
5988;BME280;3021;51.000;6.980;2022-08-19T12:10:30;69498.63;;;28.55;100.00
5988;BME280;3021;51.000;6.980;2022-08-19T12:12:56;69514.84;;;28.64;100.00
5988;BME280;3021;51.000;6.980;2022-08-19T12:15:21;69492.78;;;28.50;100.00
5988;BME280;3021;51.000;6.980;2022-08-19T12:17:46;69517.19;;;28.66;100.00
5988;BME280;3021;51.000;6.980;2022-08-19T12:20:12;69542.28;;;28.86;100.00
5988;BME280;3021;51.000;6.980;2022-08-19T12:22:39;69549.41;;;28.94;100.00
5988;BME280;3021;51.000;6.980;2022-08-19T12:25:06;69500.78;;;28.52;100.00
5988;BME280;3021;51.000;6.980;2022-08-19T12:27:32;69458.03;;;28.14;100.00
5988;BME280;3021;51.000;6.980;2022-08-19T12:29:57;69450.41;;;28.07;100.00
5988;BME280;3021;51.000;6.980;2022-08-19T12:32:23;69432.94;;;27.94;100.00
5988;BME280;3021;51.000;6.980;2022-08-19T12:34:49;69434.00;;;27.93;100.00
5988;BME280;3021;51.000;6.980;2022-08-19T12:37:14;69421.69;;;27.82;100.00
5988;BME280;3021;51.000;6.980;2022-08-19T12:39:41;69416.03;;;27.82;100.00
5988;BME280;3021;51.000;6.980;2022-08-19T12:42:07;69396.03;;;27.62;100.00
5988;BME280;3021;51.000;6.980;2022-08-19T12:44:33;69390.09;;;27.54;100.00
5988;BME280;3021;51.000;6.980;2022-08-19T12:46:59;69376.03;;;27.42;100.00
5988;BME280;3021;51.000;6.980;2022-08-19T12:49:24;69374.97;;;27.44;100.00
5988;BME280;3021;51.000;6.980;2022-08-19T12:51:50;69365.63;;;27.35;100.00
5988;BME280;3021;51.000;6.980;2022-08-19T12:54:15;69347.91;;;27.17;100.00
5988;BME280;3021;51.000;6.980;2022-08-19T12:56:40;69320.53;;;26.96;100.00
5988;BME280;3021;51.000;6.980;2022-08-19T12:59:07;69322.16;;;26.95;100.00
5988;BME280;3021;51.000;6.980;2022-08-19T13:01:33;69346.16;;;27.16;100.00
5988;BME280;3021;51.000;6.980;2022-08-19T13:06:55;69348.50;;;27.18;100.00
5988;BME280;3021;51.000;6.980;2022-08-19T13:09:20;69324.63;;;26.99;100.00
5988;BME280;3021;51.000;6.980;2022-08-19T13:11:45;69322.16;;;26.95;100.00
5988;BME280;3021;51.000;6.980;2022-08-19T13:14:11;69342.78;;;27.15;100.00
5988;BME280;3021;51.000;6.980;2022-08-19T13:16:36;69458.13;;;28.17;100.00
5988;BME280;3021;51.000;6.980;2022-08-19T13:19:03;69406.00;;;27.71;100.00
5988;BME280;3021;51.000;6.980;2022-08-19T13:21:30;69456.28;;;28.13;100.00
5988;BME280;3021;51.000;6.980;2022-08-19T13:23:56;63837.44;;;28.33;100.00
5988;BME280;3021;51.000;6.980;2022-08-19T13:26:22;63837.44;;;-147.17;100.00
5988;BME280;3021;51.000;6.980;2022-08-19T13:31:18;69474.41;;;28.28;100.00
5988;BME280;3021;51.000;6.980;2022-08-19T13:34:03;69444.56;;;28.02;100.00
5988;BME280;3021;51.000;6.980;2022-08-19T13:36:28;69438.69;;;27.97;100.00
5988;BME280;3021;51.000;6.980;2022-08-19T13:38:54;69426.97;;;27.87;100.00
5988;BME280;3021;51.000;6.980;2022-08-19T13:41:19;69428.25;;;27.90;100.00
5988;BME280;3021;51.000;6.980;2022-08-19T13:43:44;69400.72;;;27.66;100.00
5988;BME280;3021;51.000;6.980;2022-08-19T13:46:11;69387.28;;;27.54;100.00
5988;BME280;3021;51.000;6.980;2022-08-19T13:48:39;69408.81;;;27.71;100.00
5988;BME280;3021;51.000;6.980;2022-08-19T13:51:07;69399.56;;;27.65;100.00
5988;BME280;3021;51.000;6.980;2022-08-19T13:53:38;69390.09;;;27.54;100.00
5988;BME280;3021;51.000;6.980;2022-08-19T13:56:09;69398.28;;;27.62;100.00
5988;BME280;3021;51.000;6.980;2022-08-19T13:58:35;69409.50;;;27.74;100.00
5988;BME280;3021;51.000;6.980;2022-08-19T14:01:01;69407.66;;;27.70;100.00
5988;BME280;3021;51.000;6.980;2022-08-19T14:03:27;69412.91;;;27.74;100.00
5988;BME280;3021;51.000;6.980;2022-08-19T14:05:52;69425.22;;;27.85;100.00
5988;BME280;3021;51.000;6.980;2022-08-19T14:08:18;69421.91;;;27.87;100.00
5988;BME280;3021;51.000;6.980;2022-08-19T14:10:44;69439.97;;;28.01;100.00
5988;BME280;3021;51.000;6.980;2022-08-19T14:13:14;69449.81;;;28.07;100.00
5988;BME280;3021;51.000;6.980;2022-08-19T14:15:39;69441.75;;;28.02;100.00